createdAt,value
2023-04-19T00:01:27.821Z,8.68
2023-04-19T00:04:14.480Z,8.65
2023-04-19T00:06:59.516Z,8.63
2023-04-19T00:09:43.972Z,8.63
2023-04-19T00:12:28.948Z,8.62
2023-04-19T00:15:13.650Z,8.62
2023-04-19T00:17:58.673Z,8.65
2023-04-19T00:20:44.007Z,8.63
2023-04-19T00:23:28.742Z,8.66
2023-04-19T00:26:15.253Z,8.64
2023-04-19T00:29:04.135Z,8.71
2023-04-19T00:31:48.918Z,8.73
2023-04-19T00:34:34.095Z,8.75
2023-04-19T00:37:18.902Z,8.76
2023-04-19T00:40:04.763Z,8.77
2023-04-19T00:42:49.654Z,8.76
2023-04-19T00:45:35.794Z,8.77
2023-04-19T00:48:20.687Z,8.75
2023-04-19T00:51:06.073Z,8.73
2023-04-19T00:53:52.247Z,8.71
2023-04-19T00:56:37.620Z,8.69
2023-04-19T00:59:23.650Z,8.70
2023-04-19T01:02:09.361Z,8.67
2023-04-19T01:04:54.560Z,8.68
2023-04-19T01:07:39.701Z,8.68
2023-04-19T01:10:24.872Z,8.67
2023-04-19T01:13:10.100Z,8.67
2023-04-19T01:15:57.025Z,8.64
2023-04-19T01:18:42.280Z,8.65
2023-04-19T01:21:28.803Z,8.63
2023-04-19T01:24:13.719Z,8.62
2023-04-19T01:26:58.974Z,8.61
2023-04-19T01:29:46.023Z,8.57
2023-04-19T01:32:30.996Z,8.55
2023-04-19T01:35:15.799Z,8.52
2023-04-19T01:38:01.362Z,8.47
2023-04-19T01:40:46.146Z,8.44
2023-04-19T01:43:31.198Z,8.41
2023-04-19T01:46:16.287Z,8.35
2023-04-19T01:49:01.268Z,8.29
2023-04-19T01:51:46.143Z,8.27
2023-04-19T01:54:31.183Z,8.24
2023-04-19T01:57:16.236Z,8.20
2023-04-19T02:00:01.931Z,8.15
2023-04-19T02:02:46.903Z,8.07
2023-04-19T02:05:33.750Z,8.04
2023-04-19T02:08:18.960Z,7.98
2023-04-19T02:11:08.098Z,7.95
2023-04-19T02:13:53.190Z,7.89
2023-04-19T02:16:38.350Z,7.84
2023-04-19T02:19:23.504Z,7.76
2023-04-19T02:22:08.287Z,7.66
2023-04-19T02:24:53.354Z,7.58
2023-04-19T02:27:43.679Z,7.55
2023-04-19T02:30:28.802Z,7.52
2023-04-19T02:33:14.455Z,7.53
2023-04-19T02:35:59.850Z,7.54
2023-04-19T02:38:44.404Z,7.52
2023-04-19T02:41:30.832Z,7.47
2023-04-19T02:44:15.714Z,7.40
2023-04-19T02:47:01.487Z,7.32
2023-04-19T02:49:46.248Z,7.27
2023-04-19T02:52:31.321Z,7.24
2023-04-19T02:55:15.762Z,7.22
2023-04-19T02:58:02.014Z,7.20
2023-04-19T03:00:46.833Z,7.23
2023-04-19T03:03:34.362Z,7.25
2023-04-19T03:06:19.622Z,7.26
2023-04-19T03:09:04.440Z,7.29
2023-04-19T03:11:49.633Z,7.33
2023-04-19T03:14:35.736Z,7.37
2023-04-19T03:17:20.979Z,7.43
2023-04-19T03:20:09.203Z,7.49
2023-04-19T03:22:53.953Z,7.53
2023-04-19T03:25:38.969Z,7.58
2023-04-19T03:28:41.677Z,7.64
2023-04-19T03:31:36.667Z,7.69
2023-04-19T03:34:21.714Z,7.75
2023-04-19T03:37:07.310Z,7.79
2023-04-19T03:39:52.275Z,7.86
2023-04-19T03:42:43.654Z,7.91
2023-04-19T03:45:40.269Z,8.00
2023-04-19T03:48:25.318Z,8.08
2023-04-19T03:51:10.699Z,8.13
2023-04-19T03:53:55.516Z,8.21
2023-04-19T03:56:40.668Z,8.25
2023-04-19T03:59:25.732Z,8.39
2023-04-19T04:02:11.324Z,8.50
2023-04-19T04:04:56.326Z,8.59
2023-04-19T04:07:41.551Z,8.74
2023-04-19T04:10:26.600Z,8.83
2023-04-19T04:13:11.369Z,8.91
2023-04-19T04:16:06.449Z,8.96
2023-04-19T04:18:52.474Z,8.98
2023-04-19T04:21:38.425Z,9.05
2023-04-19T04:24:25.544Z,9.12
2023-04-19T04:27:25.241Z,9.22
2023-04-19T04:30:12.266Z,9.36
2023-04-19T04:32:58.395Z,9.49
2023-04-19T04:35:43.346Z,9.68
2023-04-19T04:38:33.877Z,9.93
2023-04-19T04:41:22.427Z,10.11
2023-04-19T04:44:22.946Z,10.24
2023-04-19T04:47:08.522Z,10.30
2023-04-19T04:50:01.704Z,10.40
2023-04-19T04:52:47.208Z,10.48
2023-04-19T04:55:36.585Z,10.57
2023-04-19T04:58:21.779Z,10.70
2023-04-19T05:01:12.950Z,10.80
2023-04-19T05:04:00.617Z,10.78
2023-04-19T05:06:45.732Z,10.76
2023-04-19T05:09:36.742Z,10.75
2023-04-19T05:12:21.453Z,10.80
2023-04-19T05:15:07.186Z,10.88
2023-04-19T05:17:54.369Z,11.05
2023-04-19T05:20:40.411Z,11.09
2023-04-19T05:23:35.055Z,11.05
2023-04-19T05:26:20.017Z,11.08
2023-04-19T05:29:10.638Z,10.94
2023-04-19T05:32:03.591Z,10.83
2023-04-19T05:34:51.905Z,10.83
2023-04-19T05:37:38.179Z,10.84
2023-04-19T05:40:23.876Z,10.83
2023-04-19T05:43:08.953Z,10.98
2023-04-19T05:45:54.151Z,11.15
2023-04-19T05:48:39.016Z,11.35
2023-04-19T05:51:49.705Z,11.69
2023-04-19T05:55:05.390Z,11.91
2023-04-19T05:57:51.696Z,12.07
2023-04-19T06:00:37.460Z,12.22
2023-04-19T06:03:31.078Z,12.44
2023-04-19T06:06:22.437Z,12.63
2023-04-19T06:09:07.879Z,12.76
2023-04-19T06:11:54.123Z,12.73
2023-04-19T06:14:39.041Z,12.74
2023-04-19T06:17:24.761Z,12.70
2023-04-19T06:20:10.078Z,12.74
2023-04-19T06:22:55.184Z,12.77
2023-04-19T06:25:40.620Z,12.75
2023-04-19T06:28:25.684Z,12.67
2023-04-19T06:31:11.731Z,12.76
2023-04-19T06:33:56.583Z,12.85
2023-04-19T06:36:42.105Z,13.02
2023-04-19T06:39:27.962Z,13.09
2023-04-19T06:42:13.260Z,13.11
2023-04-19T06:44:58.089Z,13.11
2023-04-19T06:47:43.260Z,13.10
2023-04-19T06:50:28.305Z,13.22
2023-04-19T06:53:13.178Z,13.27
2023-04-19T06:56:02.224Z,13.37
2023-04-19T06:58:47.289Z,13.18
2023-04-19T07:01:32.412Z,13.00
2023-04-19T07:04:17.965Z,12.89
2023-04-19T07:07:03.833Z,12.77
2023-04-19T07:09:49.075Z,12.73
2023-04-19T07:12:33.992Z,12.79
2023-04-19T07:15:30.210Z,12.65
2023-04-19T07:18:15.728Z,12.32
2023-04-19T07:21:03.941Z,12.26
2023-04-19T07:23:48.801Z,12.13
2023-04-19T07:26:34.404Z,11.91
2023-04-19T07:29:19.289Z,11.78
2023-04-19T07:32:04.835Z,11.46
2023-04-19T07:34:51.168Z,11.19
2023-04-19T07:37:35.772Z,11.17
2023-04-19T07:40:20.985Z,11.41
2023-04-19T07:43:06.316Z,11.75
2023-04-19T07:45:51.896Z,11.99
2023-04-19T07:48:37.737Z,12.24
2023-04-19T07:51:24.117Z,12.53
2023-04-19T07:54:09.800Z,12.60
2023-04-19T07:56:54.497Z,12.68
2023-04-19T07:59:39.603Z,12.82
2023-04-19T08:02:27.810Z,12.94
2023-04-19T08:05:19.423Z,13.09
2023-04-19T08:08:04.829Z,13.03
2023-04-19T08:10:49.653Z,12.98
2023-04-19T08:13:34.548Z,13.07
2023-04-19T08:17:01.378Z,13.22
2023-04-19T08:19:25.439Z,13.33
2023-04-19T08:22:10.715Z,13.55
2023-04-19T08:24:55.432Z,13.81
2023-04-19T08:27:40.088Z,13.78
2023-04-19T08:30:25.212Z,13.80
2023-04-19T08:33:11.308Z,13.91
2023-04-19T08:35:56.239Z,13.95
2023-04-19T08:38:44.515Z,13.95
2023-04-19T08:41:31.872Z,14.10
2023-04-19T08:44:32.622Z,14.47
2023-04-19T08:47:29.589Z,14.78
2023-04-19T08:50:31.209Z,15.17
2023-04-19T08:53:25.104Z,15.53
2023-04-19T08:56:24.042Z,15.70
2023-04-19T08:59:20.492Z,15.50
2023-04-19T09:02:05.769Z,15.24
2023-04-19T09:04:50.763Z,15.17
2023-04-19T09:07:36.162Z,15.05
2023-04-19T09:10:21.673Z,15.00
2023-04-19T09:13:06.552Z,14.84
2023-04-19T09:15:55.153Z,14.99
2023-04-19T09:19:08.581Z,15.39
2023-04-19T09:22:34.061Z,15.78
2023-04-19T09:28:23.625Z,15.48
2023-04-19T09:31:33.369Z,15.39
2023-04-19T09:34:19.085Z,15.18
2023-04-19T09:37:24.861Z,15.01
2023-04-19T09:40:23.278Z,14.81
2023-04-19T09:43:32.984Z,14.75
2023-04-19T09:46:31.253Z,14.63
2023-04-19T09:49:24.682Z,14.53
2023-04-19T09:52:15.976Z,14.47
2023-04-19T09:55:11.373Z,14.38
2023-04-19T09:58:03.035Z,14.67
2023-04-19T10:00:57.292Z,15.15
2023-04-19T10:03:49.724Z,15.79
2023-04-19T10:06:51.832Z,16.42
2023-04-19T10:09:51.649Z,17.02
2023-04-19T10:13:06.844Z,17.55
2023-04-19T10:15:59.353Z,17.78
2023-04-19T10:18:54.626Z,18.25
2023-04-19T10:21:41.618Z,18.45
2023-04-19T10:24:28.001Z,18.60
2023-04-19T10:27:13.404Z,19.30
2023-04-19T10:30:00.584Z,20.06
2023-04-19T10:32:51.299Z,20.53
2023-04-19T10:35:37.859Z,20.38
2023-04-19T10:38:36.065Z,19.71
2023-04-19T10:41:22.204Z,19.27
2023-04-19T10:44:11.154Z,19.36
2023-04-19T10:46:55.784Z,19.42
2023-04-19T10:49:45.685Z,19.40
2023-04-19T10:52:30.660Z,19.63
2023-04-19T10:55:19.068Z,19.17
2023-04-19T10:58:07.182Z,18.86
2023-04-19T11:01:33.488Z,18.71
2023-04-19T11:04:23.495Z,19.33
2023-04-19T11:07:08.106Z,19.71
2023-04-19T11:09:53.209Z,20.58
2023-04-19T11:12:42.291Z,21.39
2023-04-19T11:15:27.128Z,21.24
2023-04-19T11:18:19.028Z,20.40
2023-04-19T11:21:04.820Z,20.02
2023-04-19T11:24:05.583Z,20.07
2023-04-19T11:26:50.328Z,19.88
2023-04-19T11:29:35.109Z,19.56
2023-04-19T11:32:21.577Z,19.48
2023-04-19T11:35:09.505Z,19.45
2023-04-19T11:37:55.750Z,19.45
2023-04-19T11:40:41.719Z,19.45
2023-04-19T11:43:34.311Z,19.21
2023-04-19T11:46:18.930Z,19.25
2023-04-19T11:49:04.221Z,19.15
2023-04-19T11:51:55.860Z,18.85
2023-04-19T11:54:41.574Z,18.81
2023-04-19T11:57:30.005Z,19.06
2023-04-19T12:00:16.301Z,19.09
2023-04-19T12:03:01.985Z,19.06
2023-04-19T12:05:54.024Z,19.06
2023-04-19T12:08:42.943Z,19.14
2023-04-19T12:11:46.044Z,19.40
2023-04-19T12:14:31.342Z,19.22
2023-04-19T12:17:16.168Z,19.16
2023-04-19T12:20:01.107Z,18.99
2023-04-19T12:22:46.089Z,18.73
2023-04-19T12:25:32.760Z,18.21
2023-04-19T12:28:17.771Z,17.98
2023-04-19T12:31:02.818Z,17.89
2023-04-19T12:33:48.736Z,19.20
2023-04-19T12:36:34.517Z,20.84
2023-04-19T12:39:19.658Z,22.81
2023-04-19T12:42:05.555Z,25.08
2023-04-19T12:44:50.137Z,25.80
2023-04-19T12:47:35.398Z,25.13
2023-04-19T12:50:20.546Z,24.63
2023-04-19T12:53:06.199Z,23.79
2023-04-19T12:55:51.072Z,22.69
2023-04-19T12:58:35.893Z,21.63
2023-04-19T13:01:21.300Z,20.94
2023-04-19T13:04:10.975Z,20.52
2023-04-19T13:06:56.282Z,20.35
2023-04-19T13:09:41.440Z,20.13
2023-04-19T13:12:27.342Z,20.17
2023-04-19T13:15:11.839Z,20.18
2023-04-19T13:17:56.933Z,20.05
2023-04-19T13:20:41.779Z,20.05
2023-04-19T13:23:26.283Z,20.06
2023-04-19T13:26:11.550Z,19.87
2023-04-19T13:28:56.410Z,19.62
2023-04-19T13:31:42.844Z,19.51
2023-04-19T13:34:28.281Z,19.56
2023-04-19T13:37:13.040Z,19.68
2023-04-19T13:40:10.512Z,19.58
2023-04-19T13:43:00.013Z,19.15
2023-04-19T13:45:45.290Z,18.86
2023-04-19T13:48:30.155Z,18.80
2023-04-19T13:51:15.058Z,18.71
2023-04-19T13:53:59.985Z,18.61
2023-04-19T13:56:45.045Z,18.14
2023-04-19T13:59:30.225Z,17.55
2023-04-19T14:02:15.423Z,16.77
2023-04-19T14:05:00.293Z,16.27
2023-04-19T14:07:45.874Z,15.96
2023-04-19T14:10:30.637Z,15.74
2023-04-19T14:13:15.667Z,15.55
2023-04-19T14:16:00.641Z,15.45
2023-04-19T14:18:45.725Z,15.38
2023-04-19T14:21:30.961Z,15.30
2023-04-19T14:24:16.121Z,15.20
2023-04-19T14:29:49.219Z,15.01
2023-04-19T14:32:34.380Z,14.89
2023-04-19T14:35:19.505Z,14.83
2023-04-19T14:38:04.085Z,14.73
2023-04-19T14:40:49.090Z,14.69
2023-04-19T14:43:33.958Z,14.62
2023-04-19T14:46:18.881Z,14.54
2023-04-19T14:49:05.348Z,14.49
2023-04-19T14:51:51.585Z,14.45
2023-04-19T14:54:36.271Z,14.38
2023-04-19T14:57:20.811Z,14.31
2023-04-19T15:00:06.507Z,14.20
2023-04-19T15:02:51.381Z,14.08
2023-04-19T15:05:36.465Z,13.94
2023-04-19T15:08:30.248Z,13.83
2023-04-19T15:11:15.847Z,13.79
2023-04-19T15:14:00.751Z,13.76
2023-04-19T15:16:46.209Z,13.74
2023-04-19T15:19:31.515Z,13.76
2023-04-19T15:22:16.437Z,13.75
2023-04-19T15:25:01.877Z,13.70
2023-04-19T15:27:46.602Z,13.60
2023-04-19T15:30:31.557Z,13.45
2023-04-19T15:33:16.553Z,13.42
2023-04-19T15:36:01.800Z,13.46
2023-04-19T15:38:46.637Z,13.53
2023-04-19T15:41:31.828Z,13.58
2023-04-19T15:44:16.776Z,13.63
2023-04-19T15:47:01.814Z,13.67
2023-04-19T15:49:47.514Z,13.69
2023-04-19T15:52:32.142Z,13.74
2023-04-19T15:55:17.230Z,13.73
2023-04-19T15:58:03.441Z,13.71
2023-04-19T16:00:48.254Z,13.72
2023-04-19T16:03:33.323Z,13.75
2023-04-19T16:06:18.275Z,13.75
2023-04-19T16:09:03.267Z,13.75
2023-04-19T16:11:48.262Z,13.74
2023-04-19T16:14:33.230Z,13.76
2023-04-19T16:17:18.072Z,13.76
2023-04-19T16:20:04.010Z,13.72
2023-04-19T16:22:48.829Z,13.58
2023-04-19T16:25:34.071Z,13.43
2023-04-19T16:28:19.272Z,13.30
2023-04-19T16:31:04.126Z,13.21
2023-04-19T16:33:49.117Z,13.11
2023-04-19T16:36:34.202Z,13.07
2023-04-19T16:39:19.101Z,13.00
2023-04-19T16:42:03.855Z,12.96
2023-04-19T16:44:48.974Z,12.93
2023-04-19T16:47:35.215Z,12.92
2023-04-19T16:50:20.050Z,12.91
2023-04-19T16:53:05.140Z,12.86
2023-04-19T16:55:50.086Z,12.87
2023-04-19T16:58:35.164Z,12.82
2023-04-19T17:01:20.012Z,12.76
2023-04-19T17:04:05.697Z,12.74
2023-04-19T17:06:51.381Z,12.72
2023-04-19T17:09:36.087Z,12.65
2023-04-19T17:12:21.148Z,12.61
2023-04-19T17:15:06.366Z,12.59
2023-04-19T17:17:51.362Z,12.56
2023-04-19T17:20:36.309Z,12.57
2023-04-19T17:23:21.363Z,12.58
2023-04-19T17:26:06.418Z,12.65
2023-04-19T17:28:51.349Z,12.72
2023-04-19T17:31:36.530Z,12.82
2023-04-19T17:34:21.449Z,12.90
2023-04-19T17:37:06.626Z,12.98
2023-04-19T17:39:51.370Z,13.02
2023-04-19T17:42:36.477Z,13.05
2023-04-19T17:45:22.616Z,13.04
2023-04-19T17:48:07.589Z,13.10
2023-04-19T17:50:52.523Z,13.11
2023-04-19T17:53:37.507Z,13.11
2023-04-19T17:56:23.577Z,13.11
2023-04-19T17:59:08.360Z,13.08
2023-04-19T18:01:53.501Z,13.07
2023-04-19T18:04:38.894Z,13.04
2023-04-19T18:07:23.644Z,13.01
2023-04-19T18:10:09.273Z,12.98
2023-04-19T18:12:54.331Z,12.91
2023-04-19T18:15:42.070Z,12.90
2023-04-19T18:18:27.367Z,12.86
2023-04-19T18:21:12.609Z,12.82
2023-04-19T18:23:57.541Z,12.83
2023-04-19T18:26:43.119Z,12.80
2023-04-19T18:29:28.126Z,12.78
2023-04-19T18:32:13.120Z,12.77
2023-04-19T18:34:58.112Z,12.73
2023-04-19T18:37:42.975Z,12.70
2023-04-19T18:40:28.118Z,12.69
2023-04-19T18:43:13.120Z,12.67
2023-04-19T18:45:59.724Z,12.66
2023-04-19T18:48:45.646Z,12.64
2023-04-19T18:51:30.747Z,12.61
2023-04-19T18:54:15.678Z,12.60
2023-04-19T18:59:48.548Z,12.59
2023-04-19T19:02:35.363Z,12.60
2023-04-19T19:05:20.565Z,12.59
2023-04-19T19:08:05.998Z,12.60
2023-04-19T19:13:38.804Z,12.58
2023-04-19T19:16:23.352Z,12.57
2023-04-19T19:19:08.463Z,12.57
2023-04-19T19:21:53.195Z,12.53
2023-04-19T19:24:38.131Z,12.50
2023-04-19T19:27:23.368Z,12.46
2023-04-19T19:30:08.708Z,12.46
2023-04-19T19:32:53.679Z,12.42
2023-04-19T19:35:39.680Z,12.44
2023-04-19T19:38:24.562Z,12.39
2023-04-19T19:41:55.131Z,12.35
2023-04-19T19:44:14.724Z,12.37
2023-04-19T19:46:59.455Z,12.34
2023-04-19T19:50:11.546Z,12.32
2023-04-19T19:52:49.267Z,12.28
2023-04-19T19:55:34.352Z,12.24
2023-04-19T19:58:42.988Z,12.21
2023-04-19T20:01:24.187Z,12.20
2023-04-19T20:04:09.179Z,12.18
2023-04-19T20:09:42.175Z,12.15
2023-04-19T20:12:27.642Z,12.09
2023-04-19T20:15:12.855Z,12.08
2023-04-19T20:18:05.389Z,12.04
2023-04-19T20:20:51.246Z,12.01
2023-04-19T20:23:41.744Z,11.98
2023-04-19T20:26:26.344Z,11.91
2023-04-19T20:29:11.313Z,11.83
2023-04-19T20:31:56.687Z,11.72
2023-04-19T20:34:41.817Z,11.56
2023-04-19T20:37:26.928Z,11.37
2023-04-19T20:40:14.451Z,11.15
2023-04-19T20:43:00.533Z,10.96
2023-04-19T20:45:45.120Z,10.80
2023-04-19T20:48:30.151Z,10.68
2023-04-19T20:51:15.717Z,10.56
2023-04-19T20:54:01.432Z,10.47
2023-04-19T20:56:46.998Z,10.37
2023-04-19T20:59:32.195Z,10.30
2023-04-19T21:02:17.216Z,10.20
2023-04-19T21:05:02.797Z,10.18
2023-04-19T21:07:47.430Z,10.07
2023-04-19T21:10:32.327Z,10.00
2023-04-19T21:13:17.364Z,9.96
2023-04-19T21:16:02.459Z,9.87
2023-04-19T21:18:47.417Z,9.80
2023-04-19T21:21:32.910Z,9.70
2023-04-19T21:24:17.858Z,9.61
2023-04-19T21:27:02.935Z,9.59
2023-04-19T21:29:47.740Z,9.50
2023-04-19T21:32:32.998Z,9.40
2023-04-19T21:35:17.694Z,9.32
2023-04-19T21:38:02.824Z,9.26
2023-04-19T21:40:48.860Z,9.16
2023-04-19T21:43:33.818Z,9.13
2023-04-19T21:46:18.635Z,9.07
2023-04-19T21:49:03.447Z,9.03
2023-04-19T21:51:48.498Z,9.01
2023-04-19T21:54:34.546Z,9.01
2023-04-19T21:57:23.821Z,9.04
2023-04-19T22:00:09.344Z,9.02
2023-04-19T22:02:54.136Z,9.00
2023-04-19T22:05:40.333Z,8.95
2023-04-19T22:08:26.210Z,8.89
2023-04-19T22:11:11.346Z,8.89
2023-04-19T22:13:57.094Z,8.82
2023-04-19T22:16:41.662Z,8.77
2023-04-19T22:19:27.334Z,8.75
2023-04-19T22:22:12.146Z,8.73
2023-04-19T22:24:58.196Z,8.72
2023-04-19T22:27:44.722Z,8.66
2023-04-19T22:30:29.553Z,8.64
2023-04-19T22:33:14.466Z,8.57
2023-04-19T22:35:59.409Z,8.50
2023-04-19T22:38:44.542Z,8.46
2023-04-19T22:41:31.853Z,8.36
2023-04-19T22:44:16.444Z,8.24
2023-04-19T22:47:02.885Z,8.13
2023-04-19T22:49:47.494Z,8.02
2023-04-19T22:52:33.982Z,7.92
2023-04-19T22:55:18.543Z,7.83
2023-04-19T22:58:04.244Z,7.74
2023-04-19T23:00:49.255Z,7.69
2023-04-19T23:03:34.332Z,7.58
2023-04-19T23:06:18.897Z,7.43
2023-04-19T23:09:03.696Z,7.31
2023-04-19T23:11:48.448Z,7.21
2023-04-19T23:14:33.498Z,7.14
2023-04-19T23:17:19.291Z,7.08
2023-04-19T23:20:11.157Z,7.03
2023-04-19T23:22:56.466Z,7.04
2023-04-19T23:25:41.673Z,7.03
2023-04-19T23:28:26.360Z,7.02
2023-04-19T23:31:11.784Z,7.00
2023-04-19T23:33:56.337Z,6.94
2023-04-19T23:36:41.225Z,6.85
2023-04-19T23:39:26.783Z,6.79
2023-04-19T23:42:11.793Z,6.71
2023-04-19T23:44:56.918Z,6.64
2023-04-19T23:47:41.876Z,6.54
2023-04-19T23:50:26.868Z,6.44
2023-04-19T23:53:11.995Z,6.33
2023-04-19T23:55:56.821Z,6.24
2023-04-19T23:58:41.563Z,6.20
